createdAt,value
2018-10-01T00:01:04.856Z,101586.22
2018-10-01T00:03:34.152Z,101732.41
2018-10-01T00:06:06.284Z,101729.30
2018-10-01T00:08:35.154Z,101725.36
2018-10-01T00:11:04.562Z,101725.63
2018-10-01T00:13:34.327Z,101725.52
2018-10-01T00:16:03.684Z,101727.59
2018-10-01T00:18:33.714Z,101728.47
2018-10-01T00:21:08.116Z,101724.38
2018-10-01T00:23:37.408Z,101729.86
2018-10-01T00:26:06.603Z,101727.11
2018-10-01T00:28:35.716Z,101727.30
2018-10-01T00:31:05.112Z,101727.87
2018-10-01T00:33:35.120Z,101728.66
2018-10-01T00:36:05.360Z,101726.75
2018-10-01T00:38:34.261Z,101725.48
2018-10-01T00:41:03.680Z,101718.48
2018-10-01T00:43:32.509Z,101718.66
2018-10-01T00:46:04.375Z,101720.73
2018-10-01T00:48:33.203Z,101714.87
2018-10-01T00:51:02.303Z,101710.90
2018-10-01T00:53:31.183Z,101709.75
2018-10-01T00:56:00.061Z,101715.39
2018-10-01T00:58:28.930Z,101719.85
2018-10-01T01:00:57.867Z,101721.18
2018-10-01T01:03:27.583Z,101718.54
2018-10-01T01:05:56.342Z,101717.30
2018-10-01T01:08:25.236Z,101713.84
2018-10-01T01:10:54.239Z,101716.80
2018-10-01T01:13:24.363Z,101716.41
2018-10-01T01:15:53.417Z,101720.19
2018-10-01T01:18:22.063Z,101721.22
2018-10-01T01:20:50.959Z,101727.95
2018-10-01T01:23:22.287Z,101731.25
2018-10-01T01:25:51.069Z,101730.27
2018-10-01T01:28:20.634Z,101738.91
2018-10-01T01:30:49.578Z,101744.93
2018-10-01T01:33:19.049Z,101745.42
2018-10-01T01:35:49.153Z,101747.52
2018-10-01T01:38:26.076Z,101742.13
2018-10-01T01:40:56.654Z,101737.14
2018-10-01T01:43:29.250Z,101742.72
2018-10-01T01:45:59.450Z,101747.53
2018-10-01T01:48:31.606Z,101740.97
2018-10-01T01:51:00.755Z,101735.03
2018-10-01T01:53:32.209Z,101739.77
2018-10-01T01:56:03.772Z,101740.45
2018-10-01T01:58:33.781Z,101740.50
2018-10-01T02:01:06.411Z,101745.34
2018-10-01T02:03:38.217Z,101745.34
2018-10-01T02:06:08.184Z,101746.14
2018-10-01T02:08:39.669Z,101744.14
2018-10-01T02:11:11.125Z,101742.17
2018-10-01T02:13:41.159Z,101746.95
2018-10-01T02:16:10.620Z,101745.97
2018-10-01T02:18:39.970Z,101749.73
2018-10-01T02:21:13.881Z,101747.83
2018-10-01T02:23:43.742Z,101750.71
2018-10-01T02:26:12.511Z,101742.32
2018-10-01T02:28:42.133Z,101758.27
2018-10-01T02:31:11.091Z,101748.37
2018-10-01T02:33:39.991Z,101756.58
2018-10-01T02:36:14.282Z,101754.67
2018-10-01T02:38:43.852Z,101750.05
2018-10-01T02:41:19.603Z,101758.27
2018-10-01T02:43:50.482Z,101754.40
2018-10-01T02:46:21.318Z,101754.80
2018-10-01T02:48:50.765Z,101757.09
2018-10-01T02:51:19.847Z,101759.50
2018-10-01T02:53:54.579Z,101766.34
2018-10-01T02:56:28.463Z,101761.63
2018-10-01T02:58:59.447Z,101770.19
2018-10-01T03:01:31.229Z,101771.37
2018-10-01T03:04:02.146Z,101788.47
2018-10-01T03:06:32.610Z,101771.77
2018-10-01T03:09:02.668Z,101774.32
2018-10-01T03:11:32.827Z,101781.78
2018-10-01T03:14:02.460Z,101787.04
2018-10-01T03:16:35.816Z,101794.31
2018-10-01T03:19:14.185Z,101785.14
2018-10-01T03:21:43.729Z,101779.45
2018-10-01T03:24:15.211Z,101770.58
2018-10-01T03:26:45.720Z,101771.27
2018-10-01T03:29:16.208Z,101772.27
2018-10-01T03:31:47.722Z,101766.38
2018-10-01T03:34:19.080Z,101767.47
2018-10-01T03:36:49.248Z,101766.92
2018-10-01T03:39:18.128Z,101759.81
2018-10-01T03:41:47.082Z,101752.25
2018-10-01T03:44:19.828Z,101751.13
2018-10-01T03:46:50.932Z,101755.06
2018-10-01T03:49:20.352Z,101754.02
2018-10-01T03:51:49.308Z,101751.72
2018-10-01T03:54:21.290Z,101753.83
2018-10-01T03:56:51.029Z,101751.25
2018-10-01T03:59:21.020Z,101748.25
2018-10-01T04:01:49.840Z,101744.17
2018-10-01T04:04:19.654Z,101752.45
2018-10-01T04:06:49.062Z,101749.09
2018-10-01T04:09:19.167Z,101738.86
2018-10-01T04:11:52.692Z,101752.37
2018-10-01T04:14:23.307Z,101758.23
2018-10-01T04:16:57.101Z,101762.81
2018-10-01T04:19:28.277Z,101775.74
2018-10-01T04:21:59.017Z,101781.84
2018-10-01T04:24:29.853Z,101778.28
2018-10-01T04:26:59.193Z,101787.44
2018-10-01T04:29:30.415Z,101790.99
2018-10-01T04:32:01.209Z,101784.20
2018-10-01T04:34:33.185Z,101789.48
2018-10-01T04:37:02.143Z,101790.79
2018-10-01T04:39:32.667Z,101793.11
2018-10-01T04:42:02.528Z,101789.95
2018-10-01T04:44:31.421Z,101798.80
2018-10-01T04:47:01.821Z,101802.33
2018-10-01T04:49:31.543Z,101804.44
2018-10-01T04:52:01.544Z,101818.59
2018-10-01T04:54:31.380Z,101807.23
2018-10-01T04:57:05.362Z,101741.03
2018-10-01T04:59:35.192Z,101823.55
2018-10-01T05:02:09.000Z,101830.13
2018-10-01T05:04:39.035Z,101834.31
2018-10-01T05:07:09.857Z,101839.00
2018-10-01T05:09:40.904Z,101833.03
2018-10-01T05:12:12.630Z,101827.45
2018-10-01T05:14:46.129Z,101822.61
2018-10-01T05:17:17.090Z,101829.02
2018-10-01T05:19:47.019Z,101839.00
2018-10-01T05:22:18.753Z,101836.87
2018-10-01T05:24:48.820Z,101843.42
2018-10-01T05:27:19.018Z,101835.93
2018-10-01T05:29:48.174Z,101827.31
2018-10-01T05:32:19.871Z,101836.45
2018-10-01T05:34:52.203Z,101834.45
2018-10-01T05:37:24.864Z,101843.66
2018-10-01T05:40:14.263Z,101853.30
2018-10-01T05:42:49.202Z,101857.72
2018-10-01T05:45:30.737Z,101848.27
2018-10-01T05:48:05.450Z,101854.32
2018-10-01T05:53:18.382Z,101855.22
2018-10-01T05:55:53.330Z,101849.88
2018-10-01T05:58:28.817Z,101862.98
2018-10-01T06:01:03.061Z,101864.85
2018-10-01T06:03:42.936Z,101869.44
2018-10-01T06:06:13.934Z,101871.78
2018-10-01T06:08:47.785Z,101878.46
2018-10-01T06:11:21.002Z,101877.09
2018-10-01T06:13:55.015Z,101880.95
2018-10-01T06:19:06.671Z,101896.23
2018-10-01T06:24:14.961Z,101894.22
2018-10-01T06:29:25.308Z,101899.90
2018-10-01T06:31:59.022Z,101912.61
2018-10-01T06:34:30.493Z,101914.90
2018-10-01T06:37:03.976Z,101910.31
2018-10-01T06:39:40.103Z,101911.87
2018-10-01T06:42:15.806Z,101910.17
2018-10-01T06:44:51.824Z,101917.20
2018-10-01T06:47:25.071Z,101921.34
2018-10-01T06:50:00.496Z,101923.00
2018-10-01T06:52:30.271Z,101934.38
2018-10-01T06:55:05.232Z,101942.48
2018-10-01T07:00:22.274Z,101950.05
2018-10-01T07:02:58.946Z,101951.78
2018-10-01T07:05:31.032Z,101956.82
2018-10-01T07:08:05.450Z,101958.69
2018-10-01T07:10:37.773Z,101960.62
2018-10-01T07:13:09.841Z,101969.88
2018-10-01T07:15:41.889Z,101972.09
2018-10-01T07:20:49.910Z,101979.98
2018-10-01T07:23:20.812Z,101976.87
2018-10-01T07:25:57.140Z,101983.18
2018-10-01T07:28:30.892Z,101989.30
2018-10-01T07:33:53.042Z,102003.20
2018-10-01T07:36:26.369Z,102012.34
2018-10-01T07:38:58.248Z,102014.44
2018-10-01T07:41:27.570Z,102008.34
2018-10-01T07:43:57.550Z,102011.59
2018-10-01T07:46:27.928Z,102018.14
2018-10-01T07:48:57.167Z,102023.30
2018-10-01T07:51:28.483Z,102018.55
2018-10-01T07:54:05.437Z,102029.00
2018-10-01T07:56:34.365Z,102034.20
2018-10-01T07:59:06.101Z,102045.11
2018-10-01T08:01:37.925Z,102055.42
2018-10-01T08:04:06.568Z,102057.20
2018-10-01T08:06:41.403Z,102062.77
2018-10-01T08:09:12.893Z,102072.72
2018-10-01T08:11:46.608Z,102074.80
2018-10-01T08:14:17.545Z,102080.91
2018-10-01T08:19:32.682Z,102081.28
2018-10-01T08:22:02.838Z,102091.01
2018-10-01T08:24:35.260Z,102094.59
2018-10-01T08:27:06.391Z,102097.52
2018-10-01T08:29:37.518Z,102099.05
2018-10-01T08:32:08.334Z,102106.25
2018-10-01T08:34:37.765Z,102121.02
2018-10-01T08:37:07.293Z,102134.52
2018-10-01T08:39:38.471Z,102140.83
2018-10-01T08:42:08.498Z,102131.31
2018-10-01T08:44:39.416Z,102120.59
2018-10-01T08:47:08.687Z,102118.10
2018-10-01T08:49:53.127Z,102131.86
2018-10-01T08:52:33.523Z,102138.28
2018-10-01T08:55:03.555Z,102152.28
2018-10-01T08:57:33.592Z,102154.48
2018-10-01T09:00:03.158Z,102164.44
2018-10-01T09:02:34.238Z,102166.52
2018-10-01T09:05:07.341Z,102179.05
2018-10-01T09:07:37.132Z,102169.86
2018-10-01T09:10:08.089Z,102175.16
2018-10-01T09:12:37.758Z,102175.59
2018-10-01T09:15:09.616Z,102173.19
2018-10-01T09:17:40.060Z,102174.73
2018-10-01T09:20:19.595Z,102170.62
2018-10-01T09:25:29.207Z,102175.39
2018-10-01T09:27:58.406Z,102178.84
2018-10-01T09:30:27.271Z,102171.33
2018-10-01T09:32:55.624Z,102172.80
2018-10-01T09:35:24.904Z,102175.51
2018-10-01T09:37:53.626Z,102182.17
2018-10-01T09:40:22.437Z,102179.95
2018-10-01T09:42:53.339Z,102182.80
2018-10-01T09:45:23.915Z,102183.30
2018-10-01T09:50:31.685Z,102190.09
2018-10-01T09:53:00.547Z,102182.33
2018-10-01T09:55:29.408Z,102185.42
2018-10-01T09:57:58.549Z,102179.16
2018-10-01T10:00:32.770Z,102185.05
2018-10-01T10:03:01.937Z,102174.23
2018-10-01T10:05:31.272Z,102175.70
2018-10-01T10:08:03.451Z,102175.00
2018-10-01T10:10:36.769Z,102176.36
2018-10-01T10:13:11.458Z,102177.09
2018-10-01T10:18:16.664Z,102178.47
2018-10-01T10:20:46.270Z,102176.75
2018-10-01T10:23:18.057Z,102178.45
2018-10-01T10:25:46.718Z,102183.20
2018-10-01T10:28:16.311Z,102177.35
2018-10-01T10:30:46.923Z,102177.28
2018-10-01T10:33:15.784Z,102178.47
2018-10-01T10:35:44.588Z,102185.38
2018-10-01T10:38:13.389Z,102177.09
2018-10-01T10:40:43.732Z,102175.55
2018-10-01T10:43:13.217Z,102176.69
2018-10-01T10:45:42.975Z,102182.66
2018-10-01T10:48:13.325Z,102098.84
2018-10-01T10:50:42.046Z,102177.70
2018-10-01T10:53:14.887Z,102191.59
2018-10-01T10:55:45.044Z,102178.92
2018-10-01T10:58:18.385Z,102178.00
2018-10-01T11:00:47.440Z,102187.00
2018-10-01T11:03:16.711Z,102192.97
2018-10-01T11:05:45.345Z,102190.83
2018-10-01T11:08:14.082Z,102192.91
2018-10-01T11:10:42.624Z,102207.52
2018-10-01T11:13:11.362Z,102200.77
2018-10-01T11:15:39.943Z,102206.69
2018-10-01T11:18:08.883Z,102193.75
2018-10-01T11:20:37.626Z,102200.23
2018-10-01T11:23:08.404Z,102205.36
2018-10-01T11:25:37.243Z,102212.68
2018-10-01T11:28:06.285Z,102213.14
2018-10-01T11:30:35.816Z,102215.95
2018-10-01T11:33:05.940Z,102220.00
2018-10-01T11:35:34.620Z,102214.95
2018-10-01T11:38:03.561Z,102216.76
2018-10-01T11:40:32.315Z,102227.86
2018-10-01T11:43:02.137Z,102225.66
2018-10-01T11:45:30.987Z,102220.25
2018-10-01T11:48:00.590Z,102216.17
2018-10-01T11:50:31.051Z,102232.17
2018-10-01T11:53:00.690Z,102234.16
2018-10-01T11:55:31.112Z,102223.77
2018-10-01T11:58:08.353Z,102222.19
2018-10-01T12:00:40.972Z,102210.86
2018-10-01T12:03:12.553Z,102219.30
2018-10-01T12:05:42.583Z,102230.83
2018-10-01T12:08:13.229Z,102217.78
2018-10-01T12:10:43.794Z,102226.69
2018-10-01T12:13:15.154Z,102235.69
2018-10-01T12:15:46.549Z,102222.33
2018-10-01T12:18:18.235Z,102237.59
2018-10-01T12:20:49.365Z,102249.36
2018-10-01T12:23:21.102Z,102257.88
2018-10-01T12:25:52.523Z,102280.80
2018-10-01T12:30:55.752Z,102254.21
2018-10-01T12:33:27.215Z,102250.84
2018-10-01T12:35:58.575Z,102241.13
2018-10-01T12:38:29.634Z,102237.94
2018-10-01T12:41:00.489Z,102251.91
2018-10-01T12:43:30.942Z,102239.02
2018-10-01T12:46:01.017Z,102243.99
2018-10-01T12:48:31.390Z,102233.75
2018-10-01T12:51:00.872Z,102239.14
2018-10-01T12:53:37.104Z,102232.98
2018-10-01T12:56:06.386Z,102228.64
2018-10-01T12:58:39.792Z,102240.03
2018-10-01T13:01:08.656Z,102242.30
2018-10-01T13:03:37.470Z,102235.38
2018-10-01T13:08:48.697Z,102243.28
2018-10-01T13:11:18.222Z,102235.94
2018-10-01T13:13:48.209Z,102226.31
2018-10-01T13:16:24.174Z,102228.84
2018-10-01T13:18:53.049Z,102242.02
2018-10-01T13:21:25.274Z,102248.04
2018-10-01T13:23:54.213Z,102246.64
2018-10-01T13:26:23.483Z,102247.76
2018-10-01T13:28:52.477Z,102249.53
2018-10-01T13:31:28.049Z,102246.18
2018-10-01T13:33:59.224Z,102252.77
2018-10-01T13:36:29.824Z,102258.83
2018-10-01T13:38:59.468Z,102255.09
2018-10-01T13:41:28.890Z,102252.62
2018-10-01T13:43:58.603Z,102255.88
2018-10-01T13:46:28.568Z,102254.17
2018-10-01T13:49:02.781Z,102252.04
2018-10-01T13:51:31.976Z,102267.30
2018-10-01T13:54:01.538Z,102261.19
2018-10-01T13:56:31.128Z,102263.45
2018-10-01T13:59:01.656Z,102278.64
2018-10-01T14:01:34.009Z,102298.42
2018-10-01T14:04:03.111Z,102291.58
2018-10-01T14:09:13.588Z,102299.61
2018-10-01T14:11:45.846Z,102310.95
2018-10-01T14:14:16.426Z,102311.38
2018-10-01T14:16:46.167Z,102317.03
2018-10-01T14:19:16.381Z,102314.13
2018-10-01T14:21:45.308Z,102310.47
2018-10-01T14:24:15.036Z,102298.92
2018-10-01T14:26:45.464Z,102297.20
2018-10-01T14:29:18.680Z,102293.97
2018-10-01T14:31:51.861Z,102294.48
2018-10-01T14:34:24.944Z,102293.22
2018-10-01T14:36:55.077Z,102297.17
2018-10-01T14:39:29.515Z,102294.58
2018-10-01T14:42:03.353Z,102296.05
2018-10-01T14:47:15.152Z,102291.99
2018-10-01T14:49:48.389Z,102294.42
2018-10-01T14:52:22.324Z,102287.53
2018-10-01T14:54:54.671Z,102286.83
2018-10-01T14:57:23.653Z,102287.70
2018-10-01T14:59:52.949Z,102289.02
2018-10-01T15:02:21.813Z,102289.95
2018-10-01T15:04:50.665Z,102284.20
2018-10-01T15:07:19.523Z,102288.94
2018-10-01T15:09:48.264Z,102292.94
2018-10-01T15:12:17.425Z,102292.83
2018-10-01T15:14:47.778Z,102292.17
2018-10-01T15:17:16.945Z,102288.44
2018-10-01T15:19:45.804Z,102288.90
2018-10-01T15:22:14.585Z,102286.63
2018-10-01T15:24:43.890Z,102284.83
2018-10-01T15:27:12.619Z,102287.94
2018-10-01T15:29:41.556Z,102295.38
2018-10-01T15:32:10.465Z,102292.03
2018-10-01T15:34:39.168Z,102294.95
2018-10-01T15:37:08.083Z,102292.38
2018-10-01T15:39:36.685Z,102298.22
2018-10-01T15:42:05.435Z,102299.95
2018-10-01T15:44:34.252Z,102307.03
2018-10-01T15:47:02.867Z,102321.64
2018-10-01T15:49:31.631Z,102332.55
2018-10-01T15:52:00.235Z,102338.39
2018-10-01T15:54:29.051Z,102336.20
2018-10-01T15:56:57.907Z,102335.41
2018-10-01T15:59:26.595Z,102334.16
2018-10-01T16:01:56.176Z,102338.66
2018-10-01T16:04:24.822Z,102342.79
2018-10-01T16:06:53.636Z,102339.89
2018-10-01T16:09:22.560Z,102345.19
2018-10-01T16:11:51.331Z,102344.45
2018-10-01T16:14:20.016Z,102351.48
2018-10-01T16:16:50.733Z,102349.95
2018-10-01T16:19:19.491Z,102346.02
2018-10-01T16:21:48.370Z,102349.70
2018-10-01T16:24:17.357Z,102349.38
2018-10-01T16:26:45.958Z,102357.51
2018-10-01T16:29:14.679Z,102361.24
2018-10-01T16:31:43.464Z,102372.08
2018-10-01T16:34:12.047Z,102364.41
2018-10-01T16:36:40.908Z,102373.47
2018-10-01T16:39:11.878Z,102373.42
2018-10-01T16:41:40.744Z,102375.83
2018-10-01T16:44:09.651Z,102392.91
2018-10-01T16:46:39.358Z,102392.05
2018-10-01T16:49:08.865Z,102406.69
2018-10-01T16:51:39.037Z,102407.06
2018-10-01T16:54:07.752Z,102409.25
2018-10-01T16:56:36.390Z,102406.04
2018-10-01T16:59:05.296Z,102403.00
2018-10-01T17:01:34.114Z,102404.88
2018-10-01T17:04:02.694Z,102415.06
2018-10-01T17:06:32.429Z,102409.37
2018-10-01T17:09:01.622Z,102410.86
2018-10-01T17:11:30.411Z,102419.19
2018-10-01T17:13:59.063Z,102421.80
2018-10-01T17:16:27.708Z,102305.73
2018-10-01T17:18:56.308Z,102416.52
2018-10-01T17:21:25.057Z,102431.06
2018-10-01T17:23:53.876Z,102435.22
2018-10-01T17:26:22.824Z,102441.33
2018-10-01T17:28:52.459Z,102437.56
2018-10-01T17:31:22.912Z,102442.27
2018-10-01T17:33:51.812Z,102443.56
2018-10-01T17:36:22.266Z,102441.03
2018-10-01T17:38:51.341Z,102451.33
2018-10-01T17:41:20.311Z,102437.48
2018-10-01T17:43:50.083Z,102442.89
2018-10-01T17:46:18.997Z,102446.61
2018-10-01T17:48:48.044Z,102444.87
2018-10-01T17:51:16.957Z,102456.55
2018-10-01T17:53:45.896Z,102472.14
2018-10-01T17:56:15.220Z,102465.85
2018-10-01T17:58:43.904Z,102466.44
2018-10-01T18:01:13.596Z,102467.06
2018-10-01T18:03:42.594Z,102458.88
2018-10-01T18:06:11.337Z,102453.81
2018-10-01T18:08:40.748Z,102446.56
2018-10-01T18:11:09.568Z,102452.85
2018-10-01T18:13:38.844Z,102453.56
2018-10-01T18:16:07.684Z,102455.84
2018-10-01T18:18:36.443Z,102462.62
2018-10-01T18:21:05.371Z,102464.40
2018-10-01T18:23:35.371Z,102460.47
2018-10-01T18:26:04.425Z,102453.98
2018-10-01T18:28:34.298Z,102458.00
2018-10-01T18:31:05.212Z,102478.48
2018-10-01T18:33:35.532Z,102481.37
2018-10-01T18:36:05.656Z,102482.15
2018-10-01T18:38:36.989Z,102488.19
2018-10-01T18:41:08.281Z,102483.77
2018-10-01T18:43:38.922Z,102479.67
2018-10-01T18:46:08.712Z,102471.27
2018-10-01T18:48:38.071Z,102476.19
2018-10-01T18:51:07.084Z,102472.45
2018-10-01T18:53:37.076Z,102477.26
2018-10-01T18:56:07.079Z,102478.14
2018-10-01T18:58:35.761Z,102482.05
2018-10-01T19:01:04.574Z,102476.56
2018-10-01T19:03:35.000Z,102481.11
2018-10-01T19:06:03.729Z,102479.80
2018-10-01T19:08:32.543Z,102471.70
2018-10-01T19:11:01.489Z,102472.14
2018-10-01T19:13:30.409Z,102468.30
2018-10-01T19:16:00.899Z,102472.85
2018-10-01T19:18:29.891Z,102470.90
2018-10-01T19:20:59.134Z,102467.89
2018-10-01T19:23:28.128Z,102462.30
2018-10-01T19:25:57.094Z,102469.94
2018-10-01T19:28:27.141Z,102468.30
2018-10-01T19:30:58.180Z,102468.92
2018-10-01T19:33:27.137Z,102474.08
2018-10-01T19:35:55.894Z,102469.43
2018-10-01T19:38:24.746Z,102465.09
2018-10-01T19:41:02.827Z,102462.25
2018-10-01T19:43:34.860Z,102469.22
2018-10-01T19:46:08.201Z,102473.02
2018-10-01T19:48:39.989Z,102461.20
2018-10-01T19:51:18.205Z,102465.22
2018-10-01T19:53:50.493Z,102458.30
2018-10-01T19:56:24.998Z,102459.73
2018-10-01T19:59:00.900Z,102458.73
2018-10-01T20:01:34.573Z,102453.70
2018-10-01T20:04:10.845Z,102447.16
2018-10-01T20:06:41.428Z,102452.48
2018-10-01T20:09:13.441Z,102451.42
2018-10-01T20:11:43.029Z,102456.74
2018-10-01T20:14:13.029Z,102465.16
2018-10-01T20:16:43.766Z,102454.03
2018-10-01T20:19:14.007Z,102452.94
2018-10-01T20:21:44.517Z,102458.62
2018-10-01T20:24:14.318Z,102461.59
2018-10-01T20:26:47.545Z,102455.38
2018-10-01T20:29:23.442Z,102459.63
2018-10-01T20:31:52.701Z,102461.03
2018-10-01T20:34:22.485Z,102460.72
2018-10-01T20:36:53.961Z,102463.92
2018-10-01T20:39:24.118Z,102463.92
2018-10-01T20:41:54.061Z,102446.41
2018-10-01T20:44:26.159Z,102447.16
2018-10-01T20:46:57.009Z,102444.55
2018-10-01T20:49:27.242Z,102437.55
2018-10-01T20:51:57.543Z,102436.33
2018-10-01T20:54:31.601Z,102435.02
2018-10-01T20:57:02.919Z,102427.54
2018-10-01T20:59:33.861Z,102426.64
2018-10-01T21:02:04.703Z,102420.27
2018-10-01T21:04:34.959Z,102423.45
2018-10-01T21:07:06.036Z,102418.63
2018-10-01T21:09:37.488Z,102423.11
2018-10-01T21:12:08.931Z,102425.90
2018-10-01T21:14:40.744Z,102426.86
2018-10-01T21:17:12.244Z,102427.49
2018-10-01T21:19:40.990Z,102425.01
2018-10-01T21:22:12.505Z,102425.17
2018-10-01T21:24:42.986Z,102423.30
2018-10-01T21:27:12.056Z,102423.34
2018-10-01T21:29:43.436Z,102423.58
2018-10-01T21:32:16.004Z,102357.53
2018-10-01T21:34:45.936Z,102416.89
2018-10-01T21:40:12.314Z,102417.81
2018-10-01T21:42:42.302Z,102415.55
2018-10-01T21:45:12.718Z,102406.81
2018-10-01T21:47:45.267Z,102400.86
2018-10-01T21:50:16.407Z,102399.06
2018-10-01T21:52:47.462Z,102393.41
2018-10-01T21:55:18.943Z,102390.27
2018-10-01T21:57:50.277Z,102390.83
2018-10-01T22:00:21.355Z,102389.22
2018-10-01T22:02:51.592Z,102393.21
2018-10-01T22:05:22.440Z,102385.27
2018-10-01T22:07:55.055Z,102385.16
2018-10-01T22:13:01.321Z,102395.00
2018-10-01T22:15:37.436Z,102396.03
2018-10-01T22:18:07.191Z,102394.56
2018-10-01T22:20:36.287Z,102383.91
2018-10-01T22:23:09.622Z,102383.80
2018-10-01T22:25:39.756Z,102380.72
2018-10-01T22:28:10.076Z,102377.97
2018-10-01T22:30:42.569Z,102375.47
2018-10-01T22:33:14.100Z,102382.84
2018-10-01T22:35:44.460Z,102375.89
2018-10-01T22:38:14.028Z,102380.16
2018-10-01T22:40:47.863Z,102377.36
2018-10-01T22:43:21.586Z,102368.75
2018-10-01T22:45:52.649Z,102366.98
2018-10-01T22:48:22.791Z,102361.11
2018-10-01T22:50:53.431Z,102363.68
2018-10-01T22:53:24.807Z,102355.19
2018-10-01T22:55:54.855Z,102348.66
2018-10-01T22:58:23.823Z,102345.42
2018-10-01T23:00:56.227Z,102336.07
2018-10-01T23:03:27.256Z,102345.52
2018-10-01T23:05:58.518Z,102342.86
2018-10-01T23:08:28.718Z,102337.38
2018-10-01T23:11:03.054Z,102335.94
2018-10-01T23:13:32.676Z,102341.42
2018-10-01T23:16:04.758Z,102337.03
2018-10-01T23:18:34.330Z,102331.52
2018-10-01T23:21:04.566Z,102333.87
2018-10-01T23:23:35.356Z,102332.23
2018-10-01T23:26:06.192Z,102336.40
2018-10-01T23:28:35.424Z,102329.27
2018-10-01T23:31:05.052Z,102334.27
2018-10-01T23:33:36.581Z,102327.27
2018-10-01T23:36:07.794Z,102324.56
2018-10-01T23:38:37.053Z,102323.16
2018-10-01T23:41:06.742Z,102322.64
2018-10-01T23:43:35.770Z,102322.59
2018-10-01T23:46:06.708Z,102320.21
2018-10-01T23:48:37.128Z,102322.50
2018-10-01T23:51:08.202Z,102314.37
2018-10-01T23:53:38.392Z,102318.02
2018-10-01T23:56:10.191Z,102305.20
2018-10-01T23:58:40.998Z,102306.45
